Caribe Legend — V2ST — position and weather

sailwx.info

Track history (hours):
 
Tides and Currents Weather Stations Pressure Air Temp Water Temp Dewpoint Dewpoint Depression Visibility Wind Speed Wind Dir Waves Ship Positions

Caribe Legend

Last reported at 2018-Jan-19 15:54 UTC. Time now 2018-Jan-20 03:05 UTC.
Position N 25°05' W 077°21'.

Length 100 m; draft 4.8 m.

Type: Cargo ship. MMSI: 304598000.

Date/timePositionNaut miles runAvg speedWind from/ knotsBaromVisibWave heightAir tempDewpointWater temp
2018-Jan-19 15:54N 25°05' W 077°21'411.1
2018-Jan-19 15:30N 25°09' W 077°23'174 6.5
2018-Jan-18 12:56N 26°46' W 080°03'2 5.0
2018-Jan-18 12:28N 26°45' W 080°01'0 0.6
2018-Jan-18 11:58N 26°45' W 080°00'810.5
2018-Jan-18 11:14N 26°38' W 079°58'310.9
2018-Jan-18 10:57N 26°35' W 079°57'6 9.9
2018-Jan-18 10:22N 26°29' W 079°56'3 7.6
2018-Jan-18 10:00N 26°32' W 079°55'5 9.4
2018-Jan-18 09:30N 26°37' W 079°56'12 6.9
2018-Jan-18 07:43N 26°28' W 079°46'312.9
2018-Jan-18 07:29N 26°26' W 079°43'612.3
2018-Jan-18 07:00N 26°23' W 079°38'812.3
2018-Jan-18 06:22N 26°20' W 079°30'712.1
2018-Jan-18 05:46N 26°17' W 079°22'  
2018-Jan-09 19:20N 26°46' W 080°03'0 0.0
2018-Jan-09 18:59N 26°46' W 080°03'0 0.0
2018-Jan-09 18:23N 26°46' W 080°03'0 0.0
2018-Jan-09 17:59N 26°46' W 080°03'0 0.0
2018-Jan-09 17:29N 26°46' W 080°03'0 0.0
2018-Jan-09 16:59N 26°46' W 080°03'0 0.0
2018-Jan-09 16:29N 26°46' W 080°03'0 0.0
2018-Jan-09 15:59N 26°46' W 080°03'  
Track history (hours):
 
Tides and Currents Weather Stations Pressure Air Temp Water Temp Dewpoint Dewpoint Depression Visibility Wind Speed Wind Dir Waves Ship Positions

Caribe Legend

Last reported at 2018-Jan-19 15:54 UTC. Time now 2018-Jan-20 03:05 UTC.
Position N 25°05' W 077°21'.

Length 100 m; draft 4.8 m.

Type: Cargo ship. MMSI: 304598000.

Date/timePositionNaut miles runAvg speedWind from/ knotsBaromVisibWave heightAir tempDewpointWater temp
2018-Jan-19 15:54N 25°05' W 077°21'411.1
2018-Jan-19 15:30N 25°09' W 077°23'174 6.5
2018-Jan-18 12:56N 26°46' W 080°03'2 5.0
2018-Jan-18 12:28N 26°45' W 080°01'0 0.6
2018-Jan-18 11:58N 26°45' W 080°00'810.5
2018-Jan-18 11:14N 26°38' W 079°58'310.9
2018-Jan-18 10:57N 26°35' W 079°57'6 9.9
2018-Jan-18 10:22N 26°29' W 079°56'3 7.6
2018-Jan-18 10:00N 26°32' W 079°55'5 9.4
2018-Jan-18 09:30N 26°37' W 079°56'12 6.9
2018-Jan-18 07:43N 26°28' W 079°46'312.9
2018-Jan-18 07:29N 26°26' W 079°43'612.3
2018-Jan-18 07:00N 26°23' W 079°38'812.3
2018-Jan-18 06:22N 26°20' W 079°30'712.1
2018-Jan-18 05:46N 26°17' W 079°22'  
2018-Jan-09 19:20N 26°46' W 080°03'0 0.0
2018-Jan-09 18:59N 26°46' W 080°03'0 0.0
2018-Jan-09 18:23N 26°46' W 080°03'0 0.0
2018-Jan-09 17:59N 26°46' W 080°03'0 0.0
2018-Jan-09 17:29N 26°46' W 080°03'0 0.0
2018-Jan-09 16:59N 26°46' W 080°03'0 0.0
2018-Jan-09 16:29N 26°46' W 080°03'0 0.0
2018-Jan-09 15:59N 26°46' W 080°03'  

Dump ship's entire track history